sensor_id;sensor_type;location;lat;lon;timestamp;temperature;humidity
15217;DHT22;7711;46.634;14.318;2023-09-19T00:01:35;17.70;1.00
15217;DHT22;7711;46.634;14.318;2023-09-19T00:04:03;17.80;1.00
15217;DHT22;7711;46.634;14.318;2023-09-19T00:06:35;17.70;1.00
15217;DHT22;7711;46.634;14.318;2023-09-19T00:09:02;17.70;1.00
15217;DHT22;7711;46.634;14.318;2023-09-19T00:11:29;17.60;1.00
15217;DHT22;7711;46.634;14.318;2023-09-19T00:13:56;17.60;1.00
15217;DHT22;7711;46.634;14.318;2023-09-19T00:16:25;17.60;1.00
15217;DHT22;7711;46.634;14.318;2023-09-19T00:18:52;17.60;1.00
15217;DHT22;7711;46.634;14.318;2023-09-19T00:21:21;17.60;1.00
15217;DHT22;7711;46.634;14.318;2023-09-19T00:23:48;17.50;1.00
15217;DHT22;7711;46.634;14.318;2023-09-19T00:26:17;17.50;1.00
15217;DHT22;7711;46.634;14.318;2023-09-19T00:28:44;17.50;99.90
15217;DHT22;7711;46.634;14.318;2023-09-19T00:31:11;17.50;99.90
15217;DHT22;7711;46.634;14.318;2023-09-19T00:33:38;17.50;99.90
15217;DHT22;7711;46.634;14.318;2023-09-19T00:36:05;17.50;99.90
15217;DHT22;7711;46.634;14.318;2023-09-19T00:38:33;17.50;99.90
15217;DHT22;7711;46.634;14.318;2023-09-19T00:41:00;17.50;99.90
15217;DHT22;7711;46.634;14.318;2023-09-19T00:43:28;17.50;99.90
15217;DHT22;7711;46.634;14.318;2023-09-19T00:45:59;17.60;1.00
15217;DHT22;7711;46.634;14.318;2023-09-19T00:48:29;17.50;99.90
15217;DHT22;7711;46.634;14.318;2023-09-19T00:50:57;17.60;99.90
15217;DHT22;7711;46.634;14.318;2023-09-19T00:53:25;17.60;99.90
15217;DHT22;7711;46.634;14.318;2023-09-19T00:55:54;17.50;99.90
15217;DHT22;7711;46.634;14.318;2023-09-19T00:58:22;17.50;99.90
15217;DHT22;7711;46.634;14.318;2023-09-19T01:00:49;17.60;1.00
15217;DHT22;7711;46.634;14.318;2023-09-19T01:03:17;17.50;1.00
15217;DHT22;7711;46.634;14.318;2023-09-19T01:05:44;17.50;1.00
15217;DHT22;7711;46.634;14.318;2023-09-19T01:08:11;17.50;99.90
15217;DHT22;7711;46.634;14.318;2023-09-19T01:10:53;17.40;99.90
15217;DHT22;7711;46.634;14.318;2023-09-19T01:13:30;17.30;99.90
15217;DHT22;7711;46.634;14.318;2023-09-19T01:16:07;17.30;1.00
15217;DHT22;7711;46.634;14.318;2023-09-19T01:18:46;17.20;1.00
15217;DHT22;7711;46.634;14.318;2023-09-19T01:21:20;17.10;1.00
15217;DHT22;7711;46.634;14.318;2023-09-19T01:24:16;17.00;1.00
15217;DHT22;7711;46.634;14.318;2023-09-19T01:27:17;16.90;1.00
15217;DHT22;7711;46.634;14.318;2023-09-19T01:29:52;16.80;1.00
15217;DHT22;7711;46.634;14.318;2023-09-19T01:32:22;16.70;99.90
15217;DHT22;7711;46.634;14.318;2023-09-19T01:34:53;16.70;99.90
15217;DHT22;7711;46.634;14.318;2023-09-19T01:37:22;16.80;99.90
15217;DHT22;7711;46.634;14.318;2023-09-19T01:39:53;16.80;99.90
15217;DHT22;7711;46.634;14.318;2023-09-19T01:42:28;16.70;99.90
15217;DHT22;7711;46.634;14.318;2023-09-19T01:45:03;16.70;99.90
15217;DHT22;7711;46.634;14.318;2023-09-19T01:47:38;16.60;1.00
15217;DHT22;7711;46.634;14.318;2023-09-19T01:50:15;16.60;1.00
15217;DHT22;7711;46.634;14.318;2023-09-19T01:52:48;16.60;1.00
15217;DHT22;7711;46.634;14.318;2023-09-19T01:55:16;16.50;99.90
15217;DHT22;7711;46.634;14.318;2023-09-19T01:57:51;16.50;1.00
15217;DHT22;7711;46.634;14.318;2023-09-19T02:00:22;16.50;99.90
15217;DHT22;7711;46.634;14.318;2023-09-19T02:02:51;16.40;1.00
15217;DHT22;7711;46.634;14.318;2023-09-19T02:05:23;16.40;1.00
15217;DHT22;7711;46.634;14.318;2023-09-19T02:07:51;16.30;1.00
15217;DHT22;7711;46.634;14.318;2023-09-19T02:10:18;16.20;1.00
15217;DHT22;7711;46.634;14.318;2023-09-19T02:12:45;16.20;1.00
15217;DHT22;7711;46.634;14.318;2023-09-19T02:15:12;16.20;1.00
15217;DHT22;7711;46.634;14.318;2023-09-19T02:17:41;16.20;1.00
15217;DHT22;7711;46.634;14.318;2023-09-19T02:20:10;16.10;1.00
15217;DHT22;7711;46.634;14.318;2023-09-19T02:22:40;16.10;1.00
15217;DHT22;7711;46.634;14.318;2023-09-19T02:25:08;16.20;1.00
15217;DHT22;7711;46.634;14.318;2023-09-19T02:27:35;16.20;1.00
15217;DHT22;7711;46.634;14.318;2023-09-19T02:30:03;16.20;1.00
15217;DHT22;7711;46.634;14.318;2023-09-19T02:32:31;16.20;1.00
15217;DHT22;7711;46.634;14.318;2023-09-19T02:35:02;16.20;1.00
15217;DHT22;7711;46.634;14.318;2023-09-19T02:37:32;16.20;1.00
15217;DHT22;7711;46.634;14.318;2023-09-19T02:40:00;16.20;1.00
15217;DHT22;7711;46.634;14.318;2023-09-19T02:42:44;16.10;1.00
15217;DHT22;7711;46.634;14.318;2023-09-19T02:45:16;16.10;1.00
15217;DHT22;7711;46.634;14.318;2023-09-19T02:47:44;16.10;1.00
15217;DHT22;7711;46.634;14.318;2023-09-19T02:50:11;16.20;1.00
15217;DHT22;7711;46.634;14.318;2023-09-19T02:52:41;16.10;1.00
15217;DHT22;7711;46.634;14.318;2023-09-19T02:55:09;16.20;99.90
15217;DHT22;7711;46.634;14.318;2023-09-19T02:57:37;16.10;99.90
15217;DHT22;7711;46.634;14.318;2023-09-19T03:00:07;16.20;7.60
15217;DHT22;7711;46.634;14.318;2023-09-19T03:02:36;16.10;60.80
15217;DHT22;7711;46.634;14.318;2023-09-19T03:05:04;16.10;99.90
15217;DHT22;7711;46.634;14.318;2023-09-19T03:07:31;16.00;99.90
15217;DHT22;7711;46.634;14.318;2023-09-19T03:10:00;16.00;99.90
15217;DHT22;7711;46.634;14.318;2023-09-19T03:12:27;16.00;99.90
15217;DHT22;7711;46.634;14.318;2023-09-19T03:14:54;16.00;99.90
15217;DHT22;7711;46.634;14.318;2023-09-19T03:17:21;16.00;1.00
15217;DHT22;7711;46.634;14.318;2023-09-19T03:19:48;16.00;99.90
15217;DHT22;7711;46.634;14.318;2023-09-19T03:22:15;15.90;1.00
15217;DHT22;7711;46.634;14.318;2023-09-19T03:24:43;15.90;1.00
15217;DHT22;7711;46.634;14.318;2023-09-19T03:27:12;16.00;1.00
15217;DHT22;7711;46.634;14.318;2023-09-19T03:29:39;16.00;1.00
15217;DHT22;7711;46.634;14.318;2023-09-19T03:32:06;16.00;1.00
15217;DHT22;7711;46.634;14.318;2023-09-19T03:34:36;16.00;1.00
15217;DHT22;7711;46.634;14.318;2023-09-19T03:37:04;16.00;1.00
15217;DHT22;7711;46.634;14.318;2023-09-19T03:39:32;15.90;27.40
15217;DHT22;7711;46.634;14.318;2023-09-19T03:41:59;15.90;1.00
15217;DHT22;7711;46.634;14.318;2023-09-19T03:44:27;15.90;99.90
15217;DHT22;7711;46.634;14.318;2023-09-19T03:46:54;15.90;99.90
15217;DHT22;7711;46.634;14.318;2023-09-19T03:49:22;16.00;99.90
15217;DHT22;7711;46.634;14.318;2023-09-19T03:51:49;16.00;99.90
15217;DHT22;7711;46.634;14.318;2023-09-19T03:54:16;16.00;1.00
15217;DHT22;7711;46.634;14.318;2023-09-19T03:56:45;16.00;1.00
15217;DHT22;7711;46.634;14.318;2023-09-19T03:59:12;16.00;33.00
15217;DHT22;7711;46.634;14.318;2023-09-19T04:01:40;15.90;1.00
15217;DHT22;7711;46.634;14.318;2023-09-19T04:04:08;15.90;99.90
15217;DHT22;7711;46.634;14.318;2023-09-19T04:06:35;15.80;99.90
15217;DHT22;7711;46.634;14.318;2023-09-19T04:09:02;15.80;1.00
15217;DHT22;7711;46.634;14.318;2023-09-19T04:11:29;15.80;1.00
15217;DHT22;7711;46.634;14.318;2023-09-19T04:13:56;15.80;1.00
15217;DHT22;7711;46.634;14.318;2023-09-19T04:16:23;15.80;1.00
15217;DHT22;7711;46.634;14.318;2023-09-19T04:18:52;15.80;1.00
15217;DHT22;7711;46.634;14.318;2023-09-19T04:21:18;15.80;1.00
15217;DHT22;7711;46.634;14.318;2023-09-19T04:23:45;15.70;1.00
15217;DHT22;7711;46.634;14.318;2023-09-19T04:26:12;15.70;1.00
15217;DHT22;7711;46.634;14.318;2023-09-19T04:28:42;15.70;1.00
15217;DHT22;7711;46.634;14.318;2023-09-19T04:31:09;15.70;1.00
15217;DHT22;7711;46.634;14.318;2023-09-19T04:33:37;15.70;1.00
15217;DHT22;7711;46.634;14.318;2023-09-19T04:36:06;15.70;1.00
15217;DHT22;7711;46.634;14.318;2023-09-19T04:38:33;15.70;1.00
15217;DHT22;7711;46.634;14.318;2023-09-19T04:41:00;15.60;1.00
15217;DHT22;7711;46.634;14.318;2023-09-19T04:43:27;15.60;1.00
15217;DHT22;7711;46.634;14.318;2023-09-19T04:45:54;15.70;1.00
15217;DHT22;7711;46.634;14.318;2023-09-19T04:48:22;15.70;1.00
15217;DHT22;7711;46.634;14.318;2023-09-19T04:50:50;15.50;1.00
15217;DHT22;7711;46.634;14.318;2023-09-19T04:53:19;15.50;1.00
15217;DHT22;7711;46.634;14.318;2023-09-19T04:55:50;15.50;1.00
15217;DHT22;7711;46.634;14.318;2023-09-19T04:58:18;15.50;99.90
15217;DHT22;7711;46.634;14.318;2023-09-19T05:00:45;15.50;99.90
15217;DHT22;7711;46.634;14.318;2023-09-19T05:03:12;15.50;99.90
15217;DHT22;7711;46.634;14.318;2023-09-19T05:05:39;15.50;99.90
15217;DHT22;7711;46.634;14.318;2023-09-19T05:08:06;15.50;99.90
15217;DHT22;7711;46.634;14.318;2023-09-19T05:10:36;15.50;95.10
15217;DHT22;7711;46.634;14.318;2023-09-19T05:13:03;15.40;1.00
15217;DHT22;7711;46.634;14.318;2023-09-19T05:15:30;15.50;33.70
15217;DHT22;7711;46.634;14.318;2023-09-19T05:17:58;15.40;1.00
15217;DHT22;7711;46.634;14.318;2023-09-19T05:20:25;15.40;99.90
15217;DHT22;7711;46.634;14.318;2023-09-19T05:22:58;15.40;99.90
15217;DHT22;7711;46.634;14.318;2023-09-19T05:25:28;15.50;99.90
15217;DHT22;7711;46.634;14.318;2023-09-19T05:27:57;15.50;84.30
15217;DHT22;7711;46.634;14.318;2023-09-19T05:30:26;15.50;80.40
15217;DHT22;7711;46.634;14.318;2023-09-19T05:32:54;15.50;99.90
15217;DHT22;7711;46.634;14.318;2023-09-19T05:35:22;15.50;59.40
15217;DHT22;7711;46.634;14.318;2023-09-19T05:37:51;15.50;1.00
15217;DHT22;7711;46.634;14.318;2023-09-19T05:40:18;15.40;1.00
15217;DHT22;7711;46.634;14.318;2023-09-19T05:42:46;15.40;1.00
15217;DHT22;7711;46.634;14.318;2023-09-19T05:45:14;15.30;1.00
15217;DHT22;7711;46.634;14.318;2023-09-19T05:47:45;15.30;26.30
15217;DHT22;7711;46.634;14.318;2023-09-19T05:50:12;15.40;99.90
15217;DHT22;7711;46.634;14.318;2023-09-19T05:52:40;15.40;99.90
15217;DHT22;7711;46.634;14.318;2023-09-19T05:55:10;15.40;99.90
15217;DHT22;7711;46.634;14.318;2023-09-19T05:57:37;15.50;99.90
15217;DHT22;7711;46.634;14.318;2023-09-19T06:00:06;15.50;99.90
15217;DHT22;7711;46.634;14.318;2023-09-19T06:02:37;15.60;99.90
15217;DHT22;7711;46.634;14.318;2023-09-19T06:05:04;15.60;64.70
15217;DHT22;7711;46.634;14.318;2023-09-19T06:07:35;15.70;1.00
15217;DHT22;7711;46.634;14.318;2023-09-19T06:10:04;15.70;1.00
15217;DHT22;7711;46.634;14.318;2023-09-19T06:12:33;15.70;1.00
15217;DHT22;7711;46.634;14.318;2023-09-19T06:15:03;15.60;1.00
15217;DHT22;7711;46.634;14.318;2023-09-19T06:17:31;15.70;1.00
15217;DHT22;7711;46.634;14.318;2023-09-19T06:19:59;15.80;1.00
15217;DHT22;7711;46.634;14.318;2023-09-19T06:22:26;15.90;1.00
15217;DHT22;7711;46.634;14.318;2023-09-19T06:24:53;15.90;1.00
15217;DHT22;7711;46.634;14.318;2023-09-19T06:27:20;16.00;99.90
15217;DHT22;7711;46.634;14.318;2023-09-19T06:29:47;16.10;1.00
15217;DHT22;7711;46.634;14.318;2023-09-19T06:32:14;16.20;1.00
15217;DHT22;7711;46.634;14.318;2023-09-19T06:34:41;16.10;99.90
15217;DHT22;7711;46.634;14.318;2023-09-19T06:37:10;16.10;1.00
15217;DHT22;7711;46.634;14.318;2023-09-19T06:39:37;16.30;1.00
15217;DHT22;7711;46.634;14.318;2023-09-19T06:42:04;16.60;99.90
15217;DHT22;7711;46.634;14.318;2023-09-19T06:44:31;16.80;1.00
15217;DHT22;7711;46.634;14.318;2023-09-19T06:46:58;17.00;1.00
15217;DHT22;7711;46.634;14.318;2023-09-19T06:49:25;16.90;99.90
15217;DHT22;7711;46.634;14.318;2023-09-19T06:51:54;16.80;75.40
15217;DHT22;7711;46.634;14.318;2023-09-19T06:54:24;16.80;99.90
15217;DHT22;7711;46.634;14.318;2023-09-19T06:56:51;16.70;99.90
15217;DHT22;7711;46.634;14.318;2023-09-19T06:59:20;16.50;99.90
15217;DHT22;7711;46.634;14.318;2023-09-19T07:01:47;16.60;99.90
15217;DHT22;7711;46.634;14.318;2023-09-19T07:04:14;16.70;1.00
15217;DHT22;7711;46.634;14.318;2023-09-19T07:06:42;16.70;99.90
15217;DHT22;7711;46.634;14.318;2023-09-19T07:09:11;16.80;18.80
15217;DHT22;7711;46.634;14.318;2023-09-19T07:11:40;17.10;1.00
15217;DHT22;7711;46.634;14.318;2023-09-19T07:14:06;17.20;99.90
15217;DHT22;7711;46.634;14.318;2023-09-19T07:16:33;17.30;99.90
15217;DHT22;7711;46.634;14.318;2023-09-19T07:19:01;17.50;1.20
15217;DHT22;7711;46.634;14.318;2023-09-19T07:21:29;17.60;1.00
15217;DHT22;7711;46.634;14.318;2023-09-19T07:23:56;17.90;1.00
15217;DHT22;7711;46.634;14.318;2023-09-19T07:26:22;18.00;1.00
15217;DHT22;7711;46.634;14.318;2023-09-19T07:28:51;18.10;1.00
15217;DHT22;7711;46.634;14.318;2023-09-19T07:31:19;17.90;1.00
15217;DHT22;7711;46.634;14.318;2023-09-19T07:33:46;17.70;1.00
15217;DHT22;7711;46.634;14.318;2023-09-19T07:36:12;17.70;1.00
15217;DHT22;7711;46.634;14.318;2023-09-19T07:38:40;17.90;1.00
15217;DHT22;7711;46.634;14.318;2023-09-19T07:41:08;17.70;1.00
15217;DHT22;7711;46.634;14.318;2023-09-19T07:43:35;17.70;1.00
15217;DHT22;7711;46.634;14.318;2023-09-19T07:46:05;17.70;1.00
15217;DHT22;7711;46.634;14.318;2023-09-19T07:48:34;17.70;1.00
15217;DHT22;7711;46.634;14.318;2023-09-19T07:51:02;17.70;1.00
15217;DHT22;7711;46.634;14.318;2023-09-19T07:53:30;17.90;1.00
15217;DHT22;7711;46.634;14.318;2023-09-19T07:56:03;18.20;1.00
15217;DHT22;7711;46.634;14.318;2023-09-19T07:58:30;18.10;1.00
15217;DHT22;7711;46.634;14.318;2023-09-19T08:01:02;18.20;1.00
15217;DHT22;7711;46.634;14.318;2023-09-19T08:03:31;18.20;1.00
15217;DHT22;7711;46.634;14.318;2023-09-19T08:05:58;18.10;1.00
15217;DHT22;7711;46.634;14.318;2023-09-19T08:08:25;18.30;99.90
15217;DHT22;7711;46.634;14.318;2023-09-19T08:10:55;18.20;1.00
15217;DHT22;7711;46.634;14.318;2023-09-19T08:13:23;18.20;1.00
15217;DHT22;7711;46.634;14.318;2023-09-19T08:15:50;18.10;99.90
15217;DHT22;7711;46.634;14.318;2023-09-19T08:18:18;18.20;99.90
15217;DHT22;7711;46.634;14.318;2023-09-19T08:20:51;18.10;99.90
15217;DHT22;7711;46.634;14.318;2023-09-19T08:23:18;18.30;99.90
15217;DHT22;7711;46.634;14.318;2023-09-19T08:25:45;18.60;99.90
15217;DHT22;7711;46.634;14.318;2023-09-19T08:28:12;18.50;99.90
15217;DHT22;7711;46.634;14.318;2023-09-19T08:30:45;18.70;99.90
15217;DHT22;7711;46.634;14.318;2023-09-19T08:33:12;19.10;99.90
15217;DHT22;7711;46.634;14.318;2023-09-19T08:35:40;19.10;99.90
15217;DHT22;7711;46.634;14.318;2023-09-19T08:38:10;19.20;99.90
15217;DHT22;7711;46.634;14.318;2023-09-19T08:40:39;19.10;99.90
15217;DHT22;7711;46.634;14.318;2023-09-19T08:43:07;19.00;99.90
15217;DHT22;7711;46.634;14.318;2023-09-19T08:45:35;19.10;99.90
15217;DHT22;7711;46.634;14.318;2023-09-19T08:48:22;19.10;99.90
15217;DHT22;7711;46.634;14.318;2023-09-19T08:50:53;19.10;99.90
15217;DHT22;7711;46.634;14.318;2023-09-19T08:53:27;19.30;99.90
15217;DHT22;7711;46.634;14.318;2023-09-19T08:55:58;19.40;99.90
15217;DHT22;7711;46.634;14.318;2023-09-19T08:58:34;19.40;99.90
15217;DHT22;7711;46.634;14.318;2023-09-19T09:01:01;19.10;99.90
15217;DHT22;7711;46.634;14.318;2023-09-19T09:03:32;19.10;99.90
15217;DHT22;7711;46.634;14.318;2023-09-19T09:06:01;19.20;99.90
15217;DHT22;7711;46.634;14.318;2023-09-19T09:08:30;19.30;99.90
15217;DHT22;7711;46.634;14.318;2023-09-19T09:10:59;19.70;99.90
15217;DHT22;7711;46.634;14.318;2023-09-19T09:13:26;19.90;99.90
15217;DHT22;7711;46.634;14.318;2023-09-19T09:15:53;20.00;99.90
15217;DHT22;7711;46.634;14.318;2023-09-19T09:18:21;20.30;99.90
15217;DHT22;7711;46.634;14.318;2023-09-19T09:20:48;20.50;99.90
15217;DHT22;7711;46.634;14.318;2023-09-19T09:23:15;20.30;99.90
15217;DHT22;7711;46.634;14.318;2023-09-19T09:25:51;19.90;99.90
15217;DHT22;7711;46.634;14.318;2023-09-19T09:28:23;20.00;99.90
15217;DHT22;7711;46.634;14.318;2023-09-19T09:30:50;20.00;99.90
15217;DHT22;7711;46.634;14.318;2023-09-19T09:33:17;20.10;99.90
15217;DHT22;7711;46.634;14.318;2023-09-19T09:35:49;20.10;99.90
15217;DHT22;7711;46.634;14.318;2023-09-19T09:38:18;20.40;99.90
15217;DHT22;7711;46.634;14.318;2023-09-19T09:40:50;20.50;99.90
15217;DHT22;7711;46.634;14.318;2023-09-19T09:43:26;20.50;99.90
15217;DHT22;7711;46.634;14.318;2023-09-19T09:46:07;20.50;99.90
15217;DHT22;7711;46.634;14.318;2023-09-19T09:49:00;20.50;99.90
15217;DHT22;7711;46.634;14.318;2023-09-19T09:51:45;20.50;99.90
15217;DHT22;7711;46.634;14.318;2023-09-19T09:54:15;20.00;99.90
15217;DHT22;7711;46.634;14.318;2023-09-19T09:56:57;20.00;99.90
15217;DHT22;7711;46.634;14.318;2023-09-19T09:59:44;19.90;99.90
15217;DHT22;7711;46.634;14.318;2023-09-19T10:02:17;19.90;99.90
15217;DHT22;7711;46.634;14.318;2023-09-19T10:04:50;20.30;99.90
15217;DHT22;7711;46.634;14.318;2023-09-19T10:07:26;20.30;99.90
15217;DHT22;7711;46.634;14.318;2023-09-19T10:09:58;20.30;99.90
15217;DHT22;7711;46.634;14.318;2023-09-19T10:12:38;20.20;99.90
15217;DHT22;7711;46.634;14.318;2023-09-19T10:15:08;20.10;99.90
15217;DHT22;7711;46.634;14.318;2023-09-19T10:17:41;20.30;99.90
15217;DHT22;7711;46.634;14.318;2023-09-19T10:20:12;20.30;99.90
15217;DHT22;7711;46.634;14.318;2023-09-19T10:22:59;20.50;99.90
15217;DHT22;7711;46.634;14.318;2023-09-19T10:25:28;20.60;99.90
15217;DHT22;7711;46.634;14.318;2023-09-19T10:27:57;20.70;99.90
15217;DHT22;7711;46.634;14.318;2023-09-19T10:30:29;20.50;99.90
15217;DHT22;7711;46.634;14.318;2023-09-19T10:33:01;20.60;99.90
15217;DHT22;7711;46.634;14.318;2023-09-19T10:35:28;21.00;99.90
15217;DHT22;7711;46.634;14.318;2023-09-19T10:37:59;21.30;99.90
15217;DHT22;7711;46.634;14.318;2023-09-19T10:40:27;21.60;99.90
15217;DHT22;7711;46.634;14.318;2023-09-19T10:43:03;21.80;99.90
15217;DHT22;7711;46.634;14.318;2023-09-19T10:45:32;21.80;99.90
15217;DHT22;7711;46.634;14.318;2023-09-19T10:48:01;22.10;99.90
15217;DHT22;7711;46.634;14.318;2023-09-19T10:50:33;22.00;99.90
15217;DHT22;7711;46.634;14.318;2023-09-19T10:53:04;22.00;99.90
15217;DHT22;7711;46.634;14.318;2023-09-19T10:55:34;22.10;99.90
15217;DHT22;7711;46.634;14.318;2023-09-19T10:58:04;22.50;99.90
15217;DHT22;7711;46.634;14.318;2023-09-19T11:00:52;22.70;99.90
15217;DHT22;7711;46.634;14.318;2023-09-19T11:03:22;22.50;99.90
15217;DHT22;7711;46.634;14.318;2023-09-19T11:06:05;22.60;99.90
15217;DHT22;7711;46.634;14.318;2023-09-19T11:08:58;22.70;99.90
15217;DHT22;7711;46.634;14.318;2023-09-19T11:11:48;23.00;99.90
15217;DHT22;7711;46.634;14.318;2023-09-19T11:14:40;22.60;99.90
15217;DHT22;7711;46.634;14.318;2023-09-19T11:17:42;22.60;99.90
15217;DHT22;7711;46.634;14.318;2023-09-19T11:20:24;22.50;99.90
15217;DHT22;7711;46.634;14.318;2023-09-19T11:23:23;22.60;99.90
15217;DHT22;7711;46.634;14.318;2023-09-19T11:25:51;22.70;99.90
15217;DHT22;7711;46.634;14.318;2023-09-19T11:28:35;22.40;99.90
15217;DHT22;7711;46.634;14.318;2023-09-19T11:34:45;23.30;99.90
15217;DHT22;7711;46.634;14.318;2023-09-19T11:40:37;23.70;99.90
15217;DHT22;7711;46.634;14.318;2023-09-19T11:43:32;23.60;99.90
15217;DHT22;7711;46.634;14.318;2023-09-19T11:46:04;23.60;99.90
15217;DHT22;7711;46.634;14.318;2023-09-19T11:48:32;23.80;99.90
15217;DHT22;7711;46.634;14.318;2023-09-19T11:51:03;23.80;99.90
15217;DHT22;7711;46.634;14.318;2023-09-19T11:53:42;23.90;99.90
15217;DHT22;7711;46.634;14.318;2023-09-19T11:56:10;24.20;99.90
15217;DHT22;7711;46.634;14.318;2023-09-19T11:58:37;24.30;99.90
15217;DHT22;7711;46.634;14.318;2023-09-19T12:01:05;24.70;99.90
15217;DHT22;7711;46.634;14.318;2023-09-19T12:03:41;24.80;99.90
15217;DHT22;7711;46.634;14.318;2023-09-19T12:06:14;24.20;99.90
15217;DHT22;7711;46.634;14.318;2023-09-19T12:08:42;24.00;99.90
15217;DHT22;7711;46.634;14.318;2023-09-19T12:11:13;23.90;99.90
15217;DHT22;7711;46.634;14.318;2023-09-19T12:13:42;24.10;99.90
15217;DHT22;7711;46.634;14.318;2023-09-19T12:16:13;24.40;99.90
15217;DHT22;7711;46.634;14.318;2023-09-19T12:18:41;24.70;99.90
15217;DHT22;7711;46.634;14.318;2023-09-19T12:21:23;24.80;99.90
15217;DHT22;7711;46.634;14.318;2023-09-19T12:24:07;24.80;99.90
15217;DHT22;7711;46.634;14.318;2023-09-19T12:26:40;25.30;99.90
15217;DHT22;7711;46.634;14.318;2023-09-19T12:29:18;24.90;99.90
15217;DHT22;7711;46.634;14.318;2023-09-19T12:31:53;24.30;99.90
15217;DHT22;7711;46.634;14.318;2023-09-19T12:34:24;24.50;99.90
15217;DHT22;7711;46.634;14.318;2023-09-19T12:37:08;25.10;99.90
15217;DHT22;7711;46.634;14.318;2023-09-19T12:39:42;25.70;99.90
15217;DHT22;7711;46.634;14.318;2023-09-19T12:42:10;25.20;99.90
15217;DHT22;7711;46.634;14.318;2023-09-19T12:44:41;25.70;99.90
15217;DHT22;7711;46.634;14.318;2023-09-19T12:47:11;25.90;99.90
15217;DHT22;7711;46.634;14.318;2023-09-19T12:50:09;26.20;99.90
15217;DHT22;7711;46.634;14.318;2023-09-19T12:52:43;26.40;99.90
15217;DHT22;7711;46.634;14.318;2023-09-19T12:55:20;26.50;99.90
15217;DHT22;7711;46.634;14.318;2023-09-19T12:58:08;26.50;99.90
15217;DHT22;7711;46.634;14.318;2023-09-19T13:00:37;26.70;99.90
15217;DHT22;7711;46.634;14.318;2023-09-19T13:03:25;26.80;99.90
15217;DHT22;7711;46.634;14.318;2023-09-19T13:05:55;27.30;99.90
15217;DHT22;7711;46.634;14.318;2023-09-19T13:08:29;27.30;99.90
15217;DHT22;7711;46.634;14.318;2023-09-19T13:11:09;28.40;99.90
15217;DHT22;7711;46.634;14.318;2023-09-19T13:13:39;29.60;99.90
15217;DHT22;7711;46.634;14.318;2023-09-19T13:16:07;29.80;99.90
15217;DHT22;7711;46.634;14.318;2023-09-19T13:18:45;30.10;99.90
15217;DHT22;7711;46.634;14.318;2023-09-19T13:21:13;30.60;99.90
15217;DHT22;7711;46.634;14.318;2023-09-19T13:23:54;31.10;99.90
15217;DHT22;7711;46.634;14.318;2023-09-19T13:26:24;31.30;99.90
15217;DHT22;7711;46.634;14.318;2023-09-19T13:28:52;31.60;98.50
15217;DHT22;7711;46.634;14.318;2023-09-19T13:31:19;31.90;97.20
15217;DHT22;7711;46.634;14.318;2023-09-19T13:33:48;30.50;91.60
15217;DHT22;7711;46.634;14.318;2023-09-19T13:36:16;29.90;96.30
15217;DHT22;7711;46.634;14.318;2023-09-19T13:38:44;30.00;96.20
15217;DHT22;7711;46.634;14.318;2023-09-19T13:41:15;30.80;96.40
15217;DHT22;7711;46.634;14.318;2023-09-19T13:43:43;31.50;92.70
15217;DHT22;7711;46.634;14.318;2023-09-19T13:46:14;32.00;84.00
15217;DHT22;7711;46.634;14.318;2023-09-19T13:48:42;31.70;90.10
15217;DHT22;7711;46.634;14.318;2023-09-19T13:51:09;32.00;82.00
15217;DHT22;7711;46.634;14.318;2023-09-19T13:53:36;33.00;83.00
15217;DHT22;7711;46.634;14.318;2023-09-19T13:56:03;33.30;73.10
15217;DHT22;7711;46.634;14.318;2023-09-19T13:58:32;33.20;71.00
15217;DHT22;7711;46.634;14.318;2023-09-19T14:00:59;33.40;64.30
15217;DHT22;7711;46.634;14.318;2023-09-19T14:03:26;33.90;59.60
15217;DHT22;7711;46.634;14.318;2023-09-19T14:05:55;33.20;49.40
15217;DHT22;7711;46.634;14.318;2023-09-19T14:08:22;33.30;52.60
15217;DHT22;7711;46.634;14.318;2023-09-19T14:10:50;31.60;45.50
15217;DHT22;7711;46.634;14.318;2023-09-19T14:13:17;32.60;51.70
15217;DHT22;7711;46.634;14.318;2023-09-19T14:15:47;33.10;52.20
15217;DHT22;7711;46.634;14.318;2023-09-19T14:18:14;33.20;48.60
15217;DHT22;7711;46.634;14.318;2023-09-19T14:20:42;32.80;45.80
15217;DHT22;7711;46.634;14.318;2023-09-19T14:23:09;32.80;40.60
15217;DHT22;7711;46.634;14.318;2023-09-19T14:25:36;29.50;45.80
15217;DHT22;7711;46.634;14.318;2023-09-19T14:28:05;27.90;57.10
15217;DHT22;7711;46.634;14.318;2023-09-19T14:30:33;28.30;61.80
15217;DHT22;7711;46.634;14.318;2023-09-19T14:33:02;29.10;64.30
15217;DHT22;7711;46.634;14.318;2023-09-19T14:35:29;29.90;57.60
15217;DHT22;7711;46.634;14.318;2023-09-19T14:37:56;30.20;51.90
15217;DHT22;7711;46.634;14.318;2023-09-19T14:40:23;29.80;53.80
15217;DHT22;7711;46.634;14.318;2023-09-19T14:42:51;30.40;55.10
15217;DHT22;7711;46.634;14.318;2023-09-19T14:45:18;31.20;50.00
15217;DHT22;7711;46.634;14.318;2023-09-19T14:47:46;30.90;45.60
15217;DHT22;7711;46.634;14.318;2023-09-19T14:50:15;31.50;48.10
15217;DHT22;7711;46.634;14.318;2023-09-19T14:52:42;30.80;48.40
15217;DHT22;7711;46.634;14.318;2023-09-19T14:55:09;31.10;48.60
15217;DHT22;7711;46.634;14.318;2023-09-19T14:57:40;31.10;43.90
15217;DHT22;7711;46.634;14.318;2023-09-19T15:00:09;31.40;44.00
15217;DHT22;7711;46.634;14.318;2023-09-19T15:02:38;31.50;40.80
15217;DHT22;7711;46.634;14.318;2023-09-19T15:05:07;31.00;42.00
15217;DHT22;7711;46.634;14.318;2023-09-19T15:07:37;30.90;39.40
15217;DHT22;7711;46.634;14.318;2023-09-19T15:10:06;31.60;38.80
15217;DHT22;7711;46.634;14.318;2023-09-19T15:12:36;31.00;40.90
15217;DHT22;7711;46.634;14.318;2023-09-19T15:15:05;31.20;41.60
15217;DHT22;7711;46.634;14.318;2023-09-19T15:17:35;30.60;36.90
15217;DHT22;7711;46.634;14.318;2023-09-19T15:20:04;30.70;39.30
15217;DHT22;7711;46.634;14.318;2023-09-19T15:22:33;30.40;43.80
15217;DHT22;7711;46.634;14.318;2023-09-19T15:25:04;31.10;42.40
15217;DHT22;7711;46.634;14.318;2023-09-19T15:27:32;30.90;40.70
15217;DHT22;7711;46.634;14.318;2023-09-19T15:30:04;31.40;39.50
15217;DHT22;7711;46.634;14.318;2023-09-19T15:32:33;31.60;36.80
15217;DHT22;7711;46.634;14.318;2023-09-19T15:35:01;31.10;35.10
15217;DHT22;7711;46.634;14.318;2023-09-19T15:37:30;30.40;36.30
15217;DHT22;7711;46.634;14.318;2023-09-19T15:39:58;28.60;47.20
15217;DHT22;7711;46.634;14.318;2023-09-19T15:42:28;27.90;51.60
15217;DHT22;7711;46.634;14.318;2023-09-19T15:44:57;26.70;56.50
15217;DHT22;7711;46.634;14.318;2023-09-19T15:47:25;26.30;59.90
15217;DHT22;7711;46.634;14.318;2023-09-19T15:49:55;25.50;64.40
15217;DHT22;7711;46.634;14.318;2023-09-19T15:52:24;25.00;71.30
15217;DHT22;7711;46.634;14.318;2023-09-19T15:54:53;24.90;73.10
15217;DHT22;7711;46.634;14.318;2023-09-19T15:57:21;24.50;68.10
15217;DHT22;7711;46.634;14.318;2023-09-19T15:59:52;24.90;71.80
15217;DHT22;7711;46.634;14.318;2023-09-19T16:02:21;25.20;71.30